sensor_id;sensor_type;location;lat;lon;timestamp;temperature;humidity
43151;DHT22;28755;51.478;5.702;2023-03-23T00:01:47;12.90;99.90
43151;DHT22;28755;51.478;5.702;2023-03-23T00:04:15;12.90;99.90
43151;DHT22;28755;51.478;5.702;2023-03-23T00:06:41;12.90;99.90
43151;DHT22;28755;51.478;5.702;2023-03-23T00:09:09;12.90;99.90
43151;DHT22;28755;51.478;5.702;2023-03-23T00:11:35;13.00;99.90
43151;DHT22;28755;51.478;5.702;2023-03-23T00:14:01;13.00;99.90
43151;DHT22;28755;51.478;5.702;2023-03-23T00:16:29;13.00;99.90
43151;DHT22;28755;51.478;5.702;2023-03-23T00:18:58;13.00;99.90
43151;DHT22;28755;51.478;5.702;2023-03-23T00:21:26;13.00;99.90
43151;DHT22;28755;51.478;5.702;2023-03-23T00:24:10;13.00;99.90
43151;DHT22;28755;51.478;5.702;2023-03-23T00:26:38;13.10;99.90
43151;DHT22;28755;51.478;5.702;2023-03-23T00:29:06;13.10;99.90
43151;DHT22;28755;51.478;5.702;2023-03-23T00:31:32;13.10;99.90
43151;DHT22;28755;51.478;5.702;2023-03-23T00:34:01;13.10;99.90
43151;DHT22;28755;51.478;5.702;2023-03-23T00:36:27;13.10;99.90
43151;DHT22;28755;51.478;5.702;2023-03-23T00:38:54;13.10;99.90
43151;DHT22;28755;51.478;5.702;2023-03-23T00:41:23;13.10;99.90
43151;DHT22;28755;51.478;5.702;2023-03-23T00:43:49;13.10;99.90
43151;DHT22;28755;51.478;5.702;2023-03-23T00:46:16;13.10;99.90
43151;DHT22;28755;51.478;5.702;2023-03-23T00:48:42;13.10;99.90
43151;DHT22;28755;51.478;5.702;2023-03-23T00:51:10;13.10;99.90
43151;DHT22;28755;51.478;5.702;2023-03-23T00:53:37;13.10;99.90
43151;DHT22;28755;51.478;5.702;2023-03-23T00:56:03;13.10;99.90
43151;DHT22;28755;51.478;5.702;2023-03-23T00:58:28;13.10;99.90
43151;DHT22;28755;51.478;5.702;2023-03-23T01:00:54;13.20;99.90
43151;DHT22;28755;51.478;5.702;2023-03-23T01:03:19;13.20;99.90
43151;DHT22;28755;51.478;5.702;2023-03-23T01:05:45;13.20;99.90
43151;DHT22;28755;51.478;5.702;2023-03-23T01:08:17;13.20;99.90
43151;DHT22;28755;51.478;5.702;2023-03-23T01:10:44;13.20;99.90
43151;DHT22;28755;51.478;5.702;2023-03-23T01:13:11;13.30;99.90
43151;DHT22;28755;51.478;5.702;2023-03-23T01:15:37;13.30;99.90
43151;DHT22;28755;51.478;5.702;2023-03-23T01:18:03;13.30;99.90
43151;DHT22;28755;51.478;5.702;2023-03-23T01:20:29;13.30;99.90
43151;DHT22;28755;51.478;5.702;2023-03-23T01:22:57;13.30;99.90
43151;DHT22;28755;51.478;5.702;2023-03-23T01:25:27;13.30;99.90
43151;DHT22;28755;51.478;5.702;2023-03-23T01:27:53;13.30;99.90
43151;DHT22;28755;51.478;5.702;2023-03-23T01:30:19;13.20;99.90
43151;DHT22;28755;51.478;5.702;2023-03-23T01:32:44;13.20;99.90
43151;DHT22;28755;51.478;5.702;2023-03-23T01:35:12;13.30;99.90
43151;DHT22;28755;51.478;5.702;2023-03-23T01:37:38;13.20;99.90
43151;DHT22;28755;51.478;5.702;2023-03-23T01:40:04;13.20;99.90
43151;DHT22;28755;51.478;5.702;2023-03-23T01:42:36;13.20;99.90
43151;DHT22;28755;51.478;5.702;2023-03-23T01:48:18;13.10;99.90
43151;DHT22;28755;51.478;5.702;2023-03-23T01:51:05;13.20;99.90
43151;DHT22;28755;51.478;5.702;2023-03-23T01:53:40;13.20;99.90
43151;DHT22;28755;51.478;5.702;2023-03-23T01:56:09;13.20;99.90
43151;DHT22;28755;51.478;5.702;2023-03-23T01:58:37;13.20;99.90
43151;DHT22;28755;51.478;5.702;2023-03-23T02:01:09;13.20;99.90
43151;DHT22;28755;51.478;5.702;2023-03-23T02:03:38;13.20;99.90
43151;DHT22;28755;51.478;5.702;2023-03-23T02:06:05;13.20;99.90
43151;DHT22;28755;51.478;5.702;2023-03-23T02:08:31;13.20;99.90
43151;DHT22;28755;51.478;5.702;2023-03-23T02:10:58;13.20;99.90
43151;DHT22;28755;51.478;5.702;2023-03-23T02:13:24;13.20;99.90
43151;DHT22;28755;51.478;5.702;2023-03-23T02:26:54;13.20;99.90
43151;DHT22;28755;51.478;5.702;2023-03-23T02:35:01;13.20;99.90
43151;DHT22;28755;51.478;5.702;2023-03-23T02:37:37;13.20;99.90
43151;DHT22;28755;51.478;5.702;2023-03-23T02:40:07;13.30;99.90
43151;DHT22;28755;51.478;5.702;2023-03-23T02:42:38;13.30;99.90
43151;DHT22;28755;51.478;5.702;2023-03-23T02:45:08;13.30;99.90
43151;DHT22;28755;51.478;5.702;2023-03-23T02:47:35;13.40;99.90
43151;DHT22;28755;51.478;5.702;2023-03-23T02:50:03;13.30;99.90
43151;DHT22;28755;51.478;5.702;2023-03-23T02:52:31;13.30;99.90
43151;DHT22;28755;51.478;5.702;2023-03-23T02:54:58;13.30;99.90
43151;DHT22;28755;51.478;5.702;2023-03-23T02:57:25;13.30;99.90
43151;DHT22;28755;51.478;5.702;2023-03-23T02:59:52;13.30;99.90
43151;DHT22;28755;51.478;5.702;2023-03-23T03:02:23;13.40;99.90
43151;DHT22;28755;51.478;5.702;2023-03-23T03:05:35;13.30;99.90
43151;DHT22;28755;51.478;5.702;2023-03-23T03:10:53;13.30;99.90
43151;DHT22;28755;51.478;5.702;2023-03-23T03:16:37;13.30;99.90
43151;DHT22;28755;51.478;5.702;2023-03-23T03:21:43;13.30;99.90
43151;DHT22;28755;51.478;5.702;2023-03-23T03:24:11;13.30;99.90
43151;DHT22;28755;51.478;5.702;2023-03-23T03:26:42;13.30;99.90
43151;DHT22;28755;51.478;5.702;2023-03-23T03:29:11;13.40;99.90
43151;DHT22;28755;51.478;5.702;2023-03-23T03:31:39;13.30;99.90
43151;DHT22;28755;51.478;5.702;2023-03-23T03:34:06;13.30;99.90
43151;DHT22;28755;51.478;5.702;2023-03-23T03:36:34;13.30;99.90
43151;DHT22;28755;51.478;5.702;2023-03-23T03:39:07;13.30;99.90
43151;DHT22;28755;51.478;5.702;2023-03-23T03:41:35;13.30;99.90
43151;DHT22;28755;51.478;5.702;2023-03-23T03:44:02;13.20;99.90
43151;DHT22;28755;51.478;5.702;2023-03-23T03:46:27;13.30;99.90
43151;DHT22;28755;51.478;5.702;2023-03-23T03:48:55;13.20;99.90
43151;DHT22;28755;51.478;5.702;2023-03-23T03:51:22;13.20;99.90
43151;DHT22;28755;51.478;5.702;2023-03-23T03:53:48;13.30;99.90
43151;DHT22;28755;51.478;5.702;2023-03-23T03:56:14;13.30;99.90
43151;DHT22;28755;51.478;5.702;2023-03-23T03:58:39;13.40;99.90
43151;DHT22;28755;51.478;5.702;2023-03-23T04:01:08;13.40;99.90
43151;DHT22;28755;51.478;5.702;2023-03-23T04:03:35;13.30;99.90
43151;DHT22;28755;51.478;5.702;2023-03-23T04:06:02;13.40;99.90
43151;DHT22;28755;51.478;5.702;2023-03-23T04:08:28;13.30;99.90
43151;DHT22;28755;51.478;5.702;2023-03-23T04:10:53;13.40;99.90
43151;DHT22;28755;51.478;5.702;2023-03-23T04:13:19;13.30;99.90
43151;DHT22;28755;51.478;5.702;2023-03-23T04:15:46;13.40;99.90
43151;DHT22;28755;51.478;5.702;2023-03-23T04:18:13;13.40;99.90
43151;DHT22;28755;51.478;5.702;2023-03-23T04:20:41;13.30;99.90
43151;DHT22;28755;51.478;5.702;2023-03-23T04:23:07;13.40;99.90
43151;DHT22;28755;51.478;5.702;2023-03-23T04:25:33;13.40;99.90
43151;DHT22;28755;51.478;5.702;2023-03-23T04:27:59;13.40;99.90
43151;DHT22;28755;51.478;5.702;2023-03-23T04:30:27;13.40;99.90
43151;DHT22;28755;51.478;5.702;2023-03-23T04:32:54;13.40;99.90
43151;DHT22;28755;51.478;5.702;2023-03-23T04:35:24;13.30;99.90
43151;DHT22;28755;51.478;5.702;2023-03-23T04:37:51;13.40;99.90
43151;DHT22;28755;51.478;5.702;2023-03-23T04:40:17;13.40;99.90
43151;DHT22;28755;51.478;5.702;2023-03-23T04:42:43;13.30;99.90
43151;DHT22;28755;51.478;5.702;2023-03-23T04:45:18;13.30;99.90
43151;DHT22;28755;51.478;5.702;2023-03-23T04:47:48;13.40;99.90
43151;DHT22;28755;51.478;5.702;2023-03-23T04:50:20;13.40;99.90
43151;DHT22;28755;51.478;5.702;2023-03-23T04:52:47;13.40;99.90
43151;DHT22;28755;51.478;5.702;2023-03-23T04:55:13;13.40;99.90
43151;DHT22;28755;51.478;5.702;2023-03-23T04:57:39;13.30;99.90
43151;DHT22;28755;51.478;5.702;2023-03-23T05:00:06;13.30;99.90
43151;DHT22;28755;51.478;5.702;2023-03-23T05:02:38;13.30;99.90
43151;DHT22;28755;51.478;5.702;2023-03-23T05:05:07;13.30;99.90
43151;DHT22;28755;51.478;5.702;2023-03-23T05:07:33;13.30;99.90
43151;DHT22;28755;51.478;5.702;2023-03-23T05:09:59;13.30;99.90
43151;DHT22;28755;51.478;5.702;2023-03-23T05:12:25;13.30;99.90
43151;DHT22;28755;51.478;5.702;2023-03-23T05:14:52;13.30;99.90
43151;DHT22;28755;51.478;5.702;2023-03-23T05:17:17;13.30;99.90
43151;DHT22;28755;51.478;5.702;2023-03-23T05:19:44;13.30;99.90
43151;DHT22;28755;51.478;5.702;2023-03-23T05:22:13;13.30;99.90
43151;DHT22;28755;51.478;5.702;2023-03-23T05:24:39;13.30;99.90
43151;DHT22;28755;51.478;5.702;2023-03-23T05:27:05;13.30;99.90
43151;DHT22;28755;51.478;5.702;2023-03-23T05:29:33;13.30;99.90
43151;DHT22;28755;51.478;5.702;2023-03-23T05:32:01;13.30;99.90
43151;DHT22;28755;51.478;5.702;2023-03-23T05:34:28;13.20;99.90
43151;DHT22;28755;51.478;5.702;2023-03-23T05:36:54;13.20;99.90
43151;DHT22;28755;51.478;5.702;2023-03-23T05:39:21;13.10;99.90
43151;DHT22;28755;51.478;5.702;2023-03-23T05:41:46;13.00;99.90
43151;DHT22;28755;51.478;5.702;2023-03-23T05:44:12;12.70;99.90
43151;DHT22;28755;51.478;5.702;2023-03-23T05:50:29;12.30;99.90
43151;DHT22;28755;51.478;5.702;2023-03-23T05:52:56;12.30;99.90
43151;DHT22;28755;51.478;5.702;2023-03-23T05:55:28;12.30;99.90
43151;DHT22;28755;51.478;5.702;2023-03-23T05:57:54;12.40;99.90
43151;DHT22;28755;51.478;5.702;2023-03-23T06:00:20;12.50;99.90
43151;DHT22;28755;51.478;5.702;2023-03-23T06:02:48;12.60;99.90
43151;DHT22;28755;51.478;5.702;2023-03-23T06:05:14;12.70;99.90
43151;DHT22;28755;51.478;5.702;2023-03-23T06:07:41;12.60;99.90
43151;DHT22;28755;51.478;5.702;2023-03-23T06:10:07;12.60;99.90
43151;DHT22;28755;51.478;5.702;2023-03-23T06:12:38;12.70;99.90
43151;DHT22;28755;51.478;5.702;2023-03-23T06:15:04;12.70;99.90
43151;DHT22;28755;51.478;5.702;2023-03-23T06:17:33;12.70;99.90
43151;DHT22;28755;51.478;5.702;2023-03-23T06:19:59;12.70;99.90
43151;DHT22;28755;51.478;5.702;2023-03-23T06:22:25;12.80;99.90
43151;DHT22;28755;51.478;5.702;2023-03-23T06:24:50;12.80;99.90
43151;DHT22;28755;51.478;5.702;2023-03-23T06:27:16;12.70;99.90
43151;DHT22;28755;51.478;5.702;2023-03-23T06:29:43;12.80;99.90
43151;DHT22;28755;51.478;5.702;2023-03-23T06:32:10;12.80;99.90
43151;DHT22;28755;51.478;5.702;2023-03-23T06:34:37;12.90;99.90
43151;DHT22;28755;51.478;5.702;2023-03-23T06:37:02;12.90;99.90
43151;DHT22;28755;51.478;5.702;2023-03-23T06:39:28;12.90;99.90
43151;DHT22;28755;51.478;5.702;2023-03-23T06:41:54;13.00;99.90
43151;DHT22;28755;51.478;5.702;2023-03-23T06:44:21;13.00;99.90
43151;DHT22;28755;51.478;5.702;2023-03-23T06:46:47;13.10;99.90
43151;DHT22;28755;51.478;5.702;2023-03-23T06:49:13;13.10;99.90
43151;DHT22;28755;51.478;5.702;2023-03-23T06:51:39;13.10;99.90
43151;DHT22;28755;51.478;5.702;2023-03-23T06:54:04;13.10;99.90
43151;DHT22;28755;51.478;5.702;2023-03-23T06:56:30;13.10;99.90
43151;DHT22;28755;51.478;5.702;2023-03-23T06:58:56;13.10;99.90
43151;DHT22;28755;51.478;5.702;2023-03-23T07:01:22;13.10;99.90
43151;DHT22;28755;51.478;5.702;2023-03-23T07:03:47;13.10;99.90
43151;DHT22;28755;51.478;5.702;2023-03-23T07:06:14;13.10;99.90
43151;DHT22;28755;51.478;5.702;2023-03-23T07:08:40;13.10;99.90
43151;DHT22;28755;51.478;5.702;2023-03-23T07:11:06;13.10;99.90
43151;DHT22;28755;51.478;5.702;2023-03-23T07:13:32;13.00;99.90
43151;DHT22;28755;51.478;5.702;2023-03-23T07:15:57;13.00;99.90
43151;DHT22;28755;51.478;5.702;2023-03-23T07:18:23;12.90;99.90
43151;DHT22;28755;51.478;5.702;2023-03-23T07:20:50;12.80;99.90
43151;DHT22;28755;51.478;5.702;2023-03-23T07:23:16;12.80;99.90
43151;DHT22;28755;51.478;5.702;2023-03-23T07:25:43;12.90;99.90
43151;DHT22;28755;51.478;5.702;2023-03-23T07:28:10;12.90;99.90
43151;DHT22;28755;51.478;5.702;2023-03-23T07:30:35;12.90;99.90
43151;DHT22;28755;51.478;5.702;2023-03-23T07:33:05;12.90;99.90
43151;DHT22;28755;51.478;5.702;2023-03-23T07:35:31;12.90;99.90
43151;DHT22;28755;51.478;5.702;2023-03-23T07:37:56;12.90;99.90
43151;DHT22;28755;51.478;5.702;2023-03-23T07:40:22;13.00;99.90
43151;DHT22;28755;51.478;5.702;2023-03-23T07:42:52;13.00;99.90
43151;DHT22;28755;51.478;5.702;2023-03-23T07:45:18;13.00;99.90
43151;DHT22;28755;51.478;5.702;2023-03-23T07:47:44;13.00;99.90
43151;DHT22;28755;51.478;5.702;2023-03-23T07:50:10;13.00;99.90
43151;DHT22;28755;51.478;5.702;2023-03-23T07:52:37;13.00;99.90
43151;DHT22;28755;51.478;5.702;2023-03-23T07:55:05;12.90;99.90
43151;DHT22;28755;51.478;5.702;2023-03-23T07:57:31;12.90;99.90
43151;DHT22;28755;51.478;5.702;2023-03-23T07:59:57;12.60;99.90
43151;DHT22;28755;51.478;5.702;2023-03-23T08:02:24;12.40;99.90
43151;DHT22;28755;51.478;5.702;2023-03-23T08:04:50;11.80;99.90
43151;DHT22;28755;51.478;5.702;2023-03-23T08:07:17;11.40;99.90
43151;DHT22;28755;51.478;5.702;2023-03-23T08:09:45;11.10;99.90
43151;DHT22;28755;51.478;5.702;2023-03-23T08:12:10;10.90;99.90
43151;DHT22;28755;51.478;5.702;2023-03-23T08:14:36;11.00;99.90
43151;DHT22;28755;51.478;5.702;2023-03-23T08:17:02;10.90;99.90
43151;DHT22;28755;51.478;5.702;2023-03-23T08:19:27;10.80;99.90
43151;DHT22;28755;51.478;5.702;2023-03-23T08:21:53;10.80;99.90
43151;DHT22;28755;51.478;5.702;2023-03-23T08:24:19;10.90;99.90
43151;DHT22;28755;51.478;5.702;2023-03-23T08:26:44;11.00;99.90
43151;DHT22;28755;51.478;5.702;2023-03-23T08:29:10;10.90;99.90
43151;DHT22;28755;51.478;5.702;2023-03-23T08:31:37;11.00;99.90
43151;DHT22;28755;51.478;5.702;2023-03-23T08:34:03;11.00;99.90
43151;DHT22;28755;51.478;5.702;2023-03-23T08:36:33;11.00;99.90
43151;DHT22;28755;51.478;5.702;2023-03-23T08:38:59;11.10;99.90
43151;DHT22;28755;51.478;5.702;2023-03-23T08:41:25;11.10;99.90
43151;DHT22;28755;51.478;5.702;2023-03-23T08:43:51;11.30;99.90
43151;DHT22;28755;51.478;5.702;2023-03-23T08:46:18;11.30;99.90
43151;DHT22;28755;51.478;5.702;2023-03-23T08:48:45;11.40;99.90
43151;DHT22;28755;51.478;5.702;2023-03-23T08:51:10;11.40;99.90
43151;DHT22;28755;51.478;5.702;2023-03-23T08:53:37;11.40;99.90
43151;DHT22;28755;51.478;5.702;2023-03-23T08:56:05;11.40;99.90
43151;DHT22;28755;51.478;5.702;2023-03-23T08:58:31;11.60;99.90
43151;DHT22;28755;51.478;5.702;2023-03-23T09:00:56;11.70;99.90
43151;DHT22;28755;51.478;5.702;2023-03-23T09:03:22;11.70;99.90
43151;DHT22;28755;51.478;5.702;2023-03-23T09:05:48;11.70;99.90
43151;DHT22;28755;51.478;5.702;2023-03-23T09:08:14;11.80;99.90
43151;DHT22;28755;51.478;5.702;2023-03-23T09:10:39;11.90;99.90
43151;DHT22;28755;51.478;5.702;2023-03-23T09:13:05;11.90;99.90
43151;DHT22;28755;51.478;5.702;2023-03-23T09:15:31;11.80;99.90
43151;DHT22;28755;51.478;5.702;2023-03-23T09:17:58;11.90;99.90
43151;DHT22;28755;51.478;5.702;2023-03-23T09:20:26;12.10;99.90
43151;DHT22;28755;51.478;5.702;2023-03-23T09:22:53;12.10;99.90
43151;DHT22;28755;51.478;5.702;2023-03-23T09:25:22;12.00;99.90
43151;DHT22;28755;51.478;5.702;2023-03-23T09:27:53;11.90;99.90
43151;DHT22;28755;51.478;5.702;2023-03-23T09:30:26;12.00;99.90
43151;DHT22;28755;51.478;5.702;2023-03-23T09:32:52;11.80;99.90
43151;DHT22;28755;51.478;5.702;2023-03-23T09:35:18;11.70;99.90
43151;DHT22;28755;51.478;5.702;2023-03-23T09:37:47;11.40;99.90
43151;DHT22;28755;51.478;5.702;2023-03-23T09:40:16;11.20;99.90
43151;DHT22;28755;51.478;5.702;2023-03-23T09:43:13;11.00;99.90
43151;DHT22;28755;51.478;5.702;2023-03-23T09:48:55;11.10;99.90
43151;DHT22;28755;51.478;5.702;2023-03-23T09:53:52;11.10;99.90
43151;DHT22;28755;51.478;5.702;2023-03-23T09:56:20;11.10;99.90
43151;DHT22;28755;51.478;5.702;2023-03-23T10:01:23;11.90;99.90
43151;DHT22;28755;51.478;5.702;2023-03-23T10:03:55;13.10;99.90
43151;DHT22;28755;51.478;5.702;2023-03-23T10:06:23;13.30;99.90
43151;DHT22;28755;51.478;5.702;2023-03-23T10:08:57;14.20;99.90
43151;DHT22;28755;51.478;5.702;2023-03-23T10:11:48;15.20;99.90
43151;DHT22;28755;51.478;5.702;2023-03-23T10:17:15;16.40;99.90
43151;DHT22;28755;51.478;5.702;2023-03-23T10:22:11;16.80;99.90
43151;DHT22;28755;51.478;5.702;2023-03-23T10:24:53;17.50;99.90
43151;DHT22;28755;51.478;5.702;2023-03-23T10:27:33;16.60;99.90
43151;DHT22;28755;51.478;5.702;2023-03-23T10:30:13;17.80;99.90
43151;DHT22;28755;51.478;5.702;2023-03-23T10:36:10;20.30;99.90
43151;DHT22;28755;51.478;5.702;2023-03-23T10:38:17;19.70;99.90
43151;DHT22;28755;51.478;5.702;2023-03-23T10:40:48;17.90;99.90
43151;DHT22;28755;51.478;5.702;2023-03-23T10:43:14;16.40;99.90
43151;DHT22;28755;51.478;5.702;2023-03-23T10:45:43;15.50;99.90
43151;DHT22;28755;51.478;5.702;2023-03-23T10:48:22;17.00;99.90
43151;DHT22;28755;51.478;5.702;2023-03-23T10:50:54;18.90;99.90
43151;DHT22;28755;51.478;5.702;2023-03-23T10:53:21;19.50;99.90
43151;DHT22;28755;51.478;5.702;2023-03-23T10:55:49;19.40;99.90
43151;DHT22;28755;51.478;5.702;2023-03-23T10:58:33;19.00;99.90
43151;DHT22;28755;51.478;5.702;2023-03-23T11:01:01;18.20;99.90
43151;DHT22;28755;51.478;5.702;2023-03-23T11:03:43;17.40;99.90
43151;DHT22;28755;51.478;5.702;2023-03-23T11:06:17;17.10;99.90
43151;DHT22;28755;51.478;5.702;2023-03-23T11:08:54;16.20;99.90
43151;DHT22;28755;51.478;5.702;2023-03-23T11:11:29;16.00;99.90
43151;DHT22;28755;51.478;5.702;2023-03-23T11:14:15;16.40;99.90
43151;DHT22;28755;51.478;5.702;2023-03-23T11:16:50;16.20;99.90
43151;DHT22;28755;51.478;5.702;2023-03-23T11:19:23;15.60;99.90
43151;DHT22;28755;51.478;5.702;2023-03-23T11:22:05;15.50;99.90
43151;DHT22;28755;51.478;5.702;2023-03-23T11:24:36;16.00;99.90
43151;DHT22;28755;51.478;5.702;2023-03-23T11:27:06;15.80;99.90
43151;DHT22;28755;51.478;5.702;2023-03-23T11:29:35;15.40;99.90
43151;DHT22;28755;51.478;5.702;2023-03-23T11:32:05;15.20;99.90
43151;DHT22;28755;51.478;5.702;2023-03-23T11:34:33;15.10;99.90
43151;DHT22;28755;51.478;5.702;2023-03-23T11:37:07;15.10;99.90
43151;DHT22;28755;51.478;5.702;2023-03-23T11:39:54;14.90;99.90
43151;DHT22;28755;51.478;5.702;2023-03-23T11:42:23;15.10;99.90
43151;DHT22;28755;51.478;5.702;2023-03-23T11:44:53;16.80;99.90
43151;DHT22;28755;51.478;5.702;2023-03-23T11:47:30;17.00;99.90
43151;DHT22;28755;51.478;5.702;2023-03-23T11:50:07;16.40;99.90
43151;DHT22;28755;51.478;5.702;2023-03-23T11:52:51;16.60;99.90
43151;DHT22;28755;51.478;5.702;2023-03-23T11:55:22;16.50;99.90
43151;DHT22;28755;51.478;5.702;2023-03-23T11:57:51;16.10;99.90
43151;DHT22;28755;51.478;5.702;2023-03-23T12:00:19;16.00;99.90
43151;DHT22;28755;51.478;5.702;2023-03-23T12:03:09;16.10;99.90
43151;DHT22;28755;51.478;5.702;2023-03-23T12:06:01;16.10;99.90
43151;DHT22;28755;51.478;5.702;2023-03-23T12:14:22;18.80;99.90
43151;DHT22;28755;51.478;5.702;2023-03-23T12:17:23;19.40;99.90
43151;DHT22;28755;51.478;5.702;2023-03-23T12:31:26;17.10;99.90
43151;DHT22;28755;51.478;5.702;2023-03-23T12:45:50;17.00;99.90
43151;DHT22;28755;51.478;5.702;2023-03-23T12:48:27;17.20;99.90
43151;DHT22;28755;51.478;5.702;2023-03-23T12:53:50;18.20;99.90
43151;DHT22;28755;51.478;5.702;2023-03-23T12:57:25;18.80;99.90
43151;DHT22;28755;51.478;5.702;2023-03-23T13:02:30;18.70;99.90
43151;DHT22;28755;51.478;5.702;2023-03-23T13:05:07;19.70;99.90
43151;DHT22;28755;51.478;5.702;2023-03-23T13:07:45;19.80;99.90
43151;DHT22;28755;51.478;5.702;2023-03-23T13:10:22;19.70;99.90
43151;DHT22;28755;51.478;5.702;2023-03-23T13:12:48;19.40;99.90
43151;DHT22;28755;51.478;5.702;2023-03-23T13:18:10;20.70;99.90
43151;DHT22;28755;51.478;5.702;2023-03-23T13:23:36;19.60;99.90
43151;DHT22;28755;51.478;5.702;2023-03-23T13:26:07;18.40;99.90
43151;DHT22;28755;51.478;5.702;2023-03-23T13:31:16;17.40;99.90
43151;DHT22;28755;51.478;5.702;2023-03-23T13:33:49;17.60;99.90
43151;DHT22;28755;51.478;5.702;2023-03-23T13:36:18;17.50;99.90
43151;DHT22;28755;51.478;5.702;2023-03-23T13:38:49;17.30;99.90
43151;DHT22;28755;51.478;5.702;2023-03-23T13:41:17;17.20;99.90
43151;DHT22;28755;51.478;5.702;2023-03-23T13:43:45;17.30;99.90
43151;DHT22;28755;51.478;5.702;2023-03-23T13:48:48;16.80;99.90
43151;DHT22;28755;51.478;5.702;2023-03-23T13:51:36;16.80;99.90
43151;DHT22;28755;51.478;5.702;2023-03-23T13:56:47;16.70;99.90
43151;DHT22;28755;51.478;5.702;2023-03-23T13:59:46;16.60;99.90
43151;DHT22;28755;51.478;5.702;2023-03-23T14:13:24;16.00;99.90
43151;DHT22;28755;51.478;5.702;2023-03-23T14:16:00;16.00;99.90
43151;DHT22;28755;51.478;5.702;2023-03-23T14:18:36;16.00;99.90
43151;DHT22;28755;51.478;5.702;2023-03-23T14:21:04;15.80;99.90
43151;DHT22;28755;51.478;5.702;2023-03-23T14:23:32;15.20;99.90
43151;DHT22;28755;51.478;5.702;2023-03-23T14:26:05;14.60;99.90
43151;DHT22;28755;51.478;5.702;2023-03-23T14:28:39;14.10;99.90
43151;DHT22;28755;51.478;5.702;2023-03-23T14:31:22;13.80;99.90
43151;DHT22;28755;51.478;5.702;2023-03-23T14:33:49;14.00;99.90
43151;DHT22;28755;51.478;5.702;2023-03-23T14:36:24;14.20;99.90
43151;DHT22;28755;51.478;5.702;2023-03-23T14:39:14;14.80;99.90
43151;DHT22;28755;51.478;5.702;2023-03-23T14:41:40;15.40;99.90
43151;DHT22;28755;51.478;5.702;2023-03-23T14:44:10;15.90;99.90
43151;DHT22;28755;51.478;5.702;2023-03-23T14:46:38;15.70;99.90
43151;DHT22;28755;51.478;5.702;2023-03-23T14:49:05;15.50;99.90
43151;DHT22;28755;51.478;5.702;2023-03-23T14:51:31;15.40;99.90
43151;DHT22;28755;51.478;5.702;2023-03-23T14:53:59;15.30;99.90
43151;DHT22;28755;51.478;5.702;2023-03-23T14:56:35;15.40;99.90
43151;DHT22;28755;51.478;5.702;2023-03-23T14:59:06;15.50;99.90
43151;DHT22;28755;51.478;5.702;2023-03-23T15:01:36;15.50;99.90
43151;DHT22;28755;51.478;5.702;2023-03-23T15:04:35;15.50;99.90
43151;DHT22;28755;51.478;5.702;2023-03-23T15:07:00;15.20;99.90
43151;DHT22;28755;51.478;5.702;2023-03-23T15:09:27;15.00;99.90
43151;DHT22;28755;51.478;5.702;2023-03-23T15:11:58;14.90;99.90
43151;DHT22;28755;51.478;5.702;2023-03-23T15:14:42;14.90;99.90
43151;DHT22;28755;51.478;5.702;2023-03-23T15:17:18;14.80;99.90
43151;DHT22;28755;51.478;5.702;2023-03-23T15:19:45;14.90;99.90
43151;DHT22;28755;51.478;5.702;2023-03-23T15:22:26;15.80;99.90
43151;DHT22;28755;51.478;5.702;2023-03-23T15:25:01;17.20;99.90
43151;DHT22;28755;51.478;5.702;2023-03-23T15:27:30;17.90;99.90
43151;DHT22;28755;51.478;5.702;2023-03-23T15:29:58;17.40;99.90
43151;DHT22;28755;51.478;5.702;2023-03-23T15:32:31;16.20;99.90
43151;DHT22;28755;51.478;5.702;2023-03-23T15:35:09;15.70;99.90
43151;DHT22;28755;51.478;5.702;2023-03-23T15:37:41;15.40;99.90
43151;DHT22;28755;51.478;5.702;2023-03-23T15:40:15;15.30;99.90
43151;DHT22;28755;51.478;5.702;2023-03-23T15:42:41;15.20;99.90
43151;DHT22;28755;51.478;5.702;2023-03-23T15:50:32;15.30;99.90
43151;DHT22;28755;51.478;5.702;2023-03-23T15:52:58;15.20;99.90
43151;DHT22;28755;51.478;5.702;2023-03-23T15:55:25;15.20;99.90
43151;DHT22;28755;51.478;5.702;2023-03-23T15:57:51;15.10;99.90
43151;DHT22;28755;51.478;5.702;2023-03-23T16:00:19;15.00;99.90
43151;DHT22;28755;51.478;5.702;2023-03-23T16:02:52;15.00;99.90
43151;DHT22;28755;51.478;5.702;2023-03-23T16:05:18;14.80;99.90
43151;DHT22;28755;51.478;5.702;2023-03-23T16:07:44;14.70;99.90
43151;DHT22;28755;51.478;5.702;2023-03-23T16:10:19;14.50;99.90
43151;DHT22;28755;51.478;5.702;2023-03-23T16:12:45;14.50;99.90
43151;DHT22;28755;51.478;5.702;2023-03-23T16:15:11;14.40;99.90
43151;DHT22;28755;51.478;5.702;2023-03-23T16:17:37;14.40;99.90
43151;DHT22;28755;51.478;5.702;2023-03-23T16:20:18;14.40;99.90
43151;DHT22;28755;51.478;5.702;2023-03-23T16:22:45;14.60;99.90
43151;DHT22;28755;51.478;5.702;2023-03-23T16:25:11;14.60;99.90
43151;DHT22;28755;51.478;5.702;2023-03-23T16:27:38;14.60;99.90
43151;DHT22;28755;51.478;5.702;2023-03-23T16:32:43;14.50;99.90
43151;DHT22;28755;51.478;5.702;2023-03-23T16:35:10;14.50;99.90
43151;DHT22;28755;51.478;5.702;2023-03-23T16:37:36;14.50;99.90
43151;DHT22;28755;51.478;5.702;2023-03-23T16:40:04;14.50;99.90
43151;DHT22;28755;51.478;5.702;2023-03-23T16:42:31;14.60;99.90
43151;DHT22;28755;51.478;5.702;2023-03-23T16:44:57;14.70;99.90
43151;DHT22;28755;51.478;5.702;2023-03-23T16:47:22;14.70;99.90
43151;DHT22;28755;51.478;5.702;2023-03-23T16:49:50;14.90;99.90
43151;DHT22;28755;51.478;5.702;2023-03-23T16:52:16;15.10;99.90
43151;DHT22;28755;51.478;5.702;2023-03-23T16:54:42;15.20;99.90
43151;DHT22;28755;51.478;5.702;2023-03-23T16:57:07;15.20;99.90
43151;DHT22;28755;51.478;5.702;2023-03-23T16:59:33;15.30;99.90
43151;DHT22;28755;51.478;5.702;2023-03-23T17:01:58;15.20;99.90
43151;DHT22;28755;51.478;5.702;2023-03-23T17:04:31;15.00;99.90
43151;DHT22;28755;51.478;5.702;2023-03-23T17:06:57;14.80;99.90
43151;DHT22;28755;51.478;5.702;2023-03-23T17:09:26;14.80;99.90
43151;DHT22;28755;51.478;5.702;2023-03-23T17:11:53;14.70;99.90
43151;DHT22;28755;51.478;5.702;2023-03-23T17:14:20;14.70;99.90
43151;DHT22;28755;51.478;5.702;2023-03-23T17:16:46;14.60;99.90
43151;DHT22;28755;51.478;5.702;2023-03-23T17:19:12;14.60;99.90
43151;DHT22;28755;51.478;5.702;2023-03-23T17:21:39;14.40;99.90
43151;DHT22;28755;51.478;5.702;2023-03-23T17:24:05;14.40;99.90
43151;DHT22;28755;51.478;5.702;2023-03-23T17:26:31;14.40;99.90
43151;DHT22;28755;51.478;5.702;2023-03-23T17:28:57;14.40;99.90
43151;DHT22;28755;51.478;5.702;2023-03-23T17:31:22;14.40;99.90
43151;DHT22;28755;51.478;5.702;2023-03-23T17:33:48;14.40;99.90
43151;DHT22;28755;51.478;5.702;2023-03-23T17:36:14;14.40;99.90
43151;DHT22;28755;51.478;5.702;2023-03-23T17:38:39;14.40;99.90
43151;DHT22;28755;51.478;5.702;2023-03-23T17:41:05;14.40;99.90